East Carbon, Utah
Current Conditions -  °F | °C
As of 5:53 AM on Friday 24 Oct 2014 (Local Time) from KPUC Reporting Station
Clear Clear  
Wind Chill: 43°   Ceiling: Unl
Heat Index: 46°   Visibility: 10mi
Dew Point: 32°   Wind: 6mph
Humidity: 58%   Direction: 20°NNE
Pressure: 30.27"   Gusts: NA
Location:  39.55°N, 110.41°W
Report Text: KPUC 241153Z AUTO 02005KT 10SM CLR 08/00 A3027 RMK AO2 SLP219 T00780000 10089 20061 53003 TSNO
Loading
Personal Weather Stations






























Interactive Weather Map
Tropical Storm Tracking
New forecast layout! Learn more

10-Day Weather Forecast

Advertisements
Track Severe Weather on mobile